Address 0xe5fb3f283c625049cf79edcfdaf63c158d8db1bc

 
Ad
Ad
Txn Hash Method
Block
From
To
Value [Txn Fee]
0x88035a8e81b97d3e345a5102937cbfd69f7bce66c59f35445c8f7a87c66805bf0x1de9c881194840132021-09-25 4:08:553 mins ago0xe5fb3f283c625049cf79edcfdaf63c158d8db1bcOUT 0x95bcca2c5cc322e4b6a2d9cd8096cf74b876d4b50 MATIC0.000727125
0xe4eeac15439a6b8c40645d344321851ea227aa78b1519cdd931b357f6b82f6e3Transfer194829642021-09-25 3:32:5339 mins ago0xe5fb3f283c625049cf79edcfdaf63c158d8db1bcSELF0xe5fb3f283c625049cf79edcfdaf63c158d8db1bc0 MATIC0.00004662
0xc1b23ed992425be8bc34fe223f7aab40eed78562b420239e163e240ebd8fb4650x1de9c881194828762021-09-25 3:29:4942 mins ago0xe5fb3f283c625049cf79edcfdaf63c158d8db1bcOUT 0x95bcca2c5cc322e4b6a2d9cd8096cf74b876d4b50 MATIC0.0048508
0x2e41d11efe37c7d57dca2f397ba5d28862540bf2cdc9d73fbce64858b4f1372c0x1de9c881194827862021-09-25 3:26:4545 mins ago0xe5fb3f283c625049cf79edcfdaf63c158d8db1bcOUT 0x95bcca2c5cc322e4b6a2d9cd8096cf74b876d4b50 MATIC0.000096918
0x4d7ffbec47c13a8f2eca386cb6d51f07017b2becc2fa318670c9a1ad31492b970x1de9c881194826952021-09-25 3:23:3948 mins ago0xe5fb3f283c625049cf79edcfdaf63c158d8db1bcOUT 0x95bcca2c5cc322e4b6a2d9cd8096cf74b876d4b50 MATIC0.000048496
0x2bd74f2691b4348eba4a2d9c689b64b305ae064994be1d869085c99738f6fa9a0x1de9c881194823802021-09-25 3:12:4959 mins ago0xe5fb3f283c625049cf79edcfdaf63c158d8db1bcOUT 0x353b7a9c1aedad804d0c32daf2373c82bff2bb550 MATIC0.00009694
0xf87f7039a7cda59bccac9aad991757a5961b6e10b107f9000b63ea7744270ba50x1de9c881194822722021-09-25 3:09:051 hr 3 mins ago0xe5fb3f283c625049cf79edcfdaf63c158d8db1bcOUT 0x353b7a9c1aedad804d0c32daf2373c82bff2bb550 MATIC0.000096926
0xf4fbdee144c898fd52330814f87c0bbd00386fae4061fefaa9f949fb97111ed3Transfer194819022021-09-25 2:56:211 hr 15 mins ago0xe5fb3f283c625049cf79edcfdaf63c158d8db1bcSELF0xe5fb3f283c625049cf79edcfdaf63c158d8db1bc0 MATIC0.00004662
0x47251c556f2c9016507d60c0f24b7587cdc9990b93466d48a470a2fd8af941d00x1de9c881194816882021-09-25 2:49:011 hr 23 mins ago0xe5fb3f283c625049cf79edcfdaf63c158d8db1bcOUT 0xa153e789d45fc5be2986917a33e298437f52899c0 MATIC0.0004845
0xd0e165609246298e4696c4ded931651bad7ef8afb315460e30c19a2b1607f5460x1de9c881194816072021-09-25 2:46:151 hr 26 mins ago0xe5fb3f283c625049cf79edcfdaf63c158d8db1bcOUT 0x95bcca2c5cc322e4b6a2d9cd8096cf74b876d4b50 MATIC0.00121235
0xfc0f9afcb50d2bb804ccee7b863a08a0b68a76049eb18223d5dc195d81bfe752Transfer194814162021-09-25 2:39:411 hr 32 mins ago0xe5fb3f283c625049cf79edcfdaf63c158d8db1bcSELF0xe5fb3f283c625049cf79edcfdaf63c158d8db1bc0 MATIC0.0000517482
0x59da634fa7f9c49de3a3ad4aeea167a7b386209bb3bade564030469da1c0be3f0x1de9c881194813572021-09-25 2:37:391 hr 34 mins ago0xe5fb3f283c625049cf79edcfdaf63c158d8db1bcOUT 0x95bcca2c5cc322e4b6a2d9cd8096cf74b876d4b50 MATIC0.0000630669
0xd103e6612c63d1f2c177c0f09c203f7aeba8875b987c888d516b1f5f1ac46d92Transfer194811982021-09-25 2:32:091 hr 40 mins ago0xe5fb3f283c625049cf79edcfdaf63c158d8db1bcSELF0xe5fb3f283c625049cf79edcfdaf63c158d8db1bc0 MATIC0.00002331
0xcf59f078372562e875e41ff06a2e40ae832c03f0b7ea04232fc2bb7170bc5bffTransfer194808192021-09-25 2:19:071 hr 53 mins ago0xe5fb3f283c625049cf79edcfdaf63c158d8db1bcSELF0xe5fb3f283c625049cf79edcfdaf63c158d8db1bc0 MATIC0.000051282
0x74aef1af7ef45af31bade6e16cdeb98991779ef4e7dcefa62f4f2ba4c872c24b0x1de9c881194806622021-09-25 2:13:441 hr 58 mins ago0xe5fb3f283c625049cf79edcfdaf63c158d8db1bcOUT 0x95bcca2c5cc322e4b6a2d9cd8096cf74b876d4b50 MATIC0.000097026
0x438787ee188c96464bf1afa7e0cfb6b0dcacf77f3c630d34d29b0ad83d35b0d3Transfer194803312021-09-25 2:02:222 hrs 9 mins ago0xe5fb3f283c625049cf79edcfdaf63c158d8db1bcSELF0xe5fb3f283c625049cf79edcfdaf63c158d8db1bc0 MATIC0.000034965
0xbdc912ab838b2c3519df2804ec4dbe6870e83157ba2725ee9c38055639c0e5210x1de9c881194802012021-09-25 1:57:542 hrs 14 mins ago0xe5fb3f283c625049cf79edcfdaf63c158d8db1bcOUT 0xa153e789d45fc5be2986917a33e298437f52899c0 MATIC0.000145461
0x5eb376c361e3ddb32a8fe7ce8cb1043854665570842fc080f5a4a2d5b90db3e5Transfer194801842021-09-25 1:57:162 hrs 15 mins ago0xe5fb3f283c625049cf79edcfdaf63c158d8db1bcSELF0xe5fb3f283c625049cf79edcfdaf63c158d8db1bc0 MATIC0.000034965
0x4010c18da10b949e35db646ed1eb8e0c7e185df3bb49689bec4ec414282227750x1de9c881194797922021-09-25 1:43:172 hrs 29 mins ago0xe5fb3f283c625049cf79edcfdaf63c158d8db1bcOUT 0x95bcca2c5cc322e4b6a2d9cd8096cf74b876d4b50 MATIC0.008757801
0xd2837ff3c2c13f4024bd779b8ee9fdd1f75d60a7633eb974d7345edd4dd181540x1de9c881194797272021-09-25 1:39:252 hrs 32 mins ago0xe5fb3f283c625049cf79edcfdaf63c158d8db1bcOUT 0x353b7a9c1aedad804d0c32daf2373c82bff2bb550 MATIC0.000048482004
0x7dcd6006249b2818f41d60d7f1e8db04abde9f281f87fc8dcf11aa9c378efee5Transfer194795742021-09-25 1:34:112 hrs 38 mins ago0xe5fb3f283c625049cf79edcfdaf63c158d8db1bcSELF0xe5fb3f283c625049cf79edcfdaf63c158d8db1bc0 MATIC0.00006993
0xc2b0796dec1ed35aaac19267b9913a7a085fc4d9b284c8aef1a23e2e3e632e06Transfer194795482021-09-25 1:33:152 hrs 39 mins ago0xe5fb3f283c625049cf79edcfdaf63c158d8db1bcSELF0xe5fb3f283c625049cf79edcfdaf63c158d8db1bc0 MATIC0.0001293705
0x771b626fcf21df24bcbda4c872abed6349ff4f478a064771bfdd424c51e2d2f4Transfer194792832021-09-25 1:24:062 hrs 48 mins ago0xe5fb3f283c625049cf79edcfdaf63c158d8db1bcSELF0xe5fb3f283c625049cf79edcfdaf63c158d8db1bc0 MATIC0.000193576907
0x927fff37ba5cb0acfd2ba588a5120bd7a57f5c833b9cc03e7d52e1ccc5414f9e0x1de9c881194792562021-09-25 1:23:122 hrs 49 mins ago0xe5fb3f283c625049cf79edcfdaf63c158d8db1bcOUT 0x95bcca2c5cc322e4b6a2d9cd8096cf74b876d4b50 MATIC0.000048483004
0xde4c4d14df6d534b8da657e157a73c40e1516cc009d6c103f6c7666ca93be8000x1de9c881194788082021-09-25 1:07:483 hrs 4 mins ago0xe5fb3f283c625049cf79edcfdaf63c158d8db1bcOUT 0x95bcca2c5cc322e4b6a2d9cd8096cf74b876d4b50 MATIC0.024614447608
[ Download CSV Export 
Parent Txn Hash Block From To Value
Loading

Contract Name:
0 MATIC

Compiler Version
0

Optimization Enabled:
0 MATIC

Other Settings:
-NA-
Block Transaction Gas Used Reward
Age Block Fee Address BC Fee Address Voting Power Jailed Incoming
Block Uncle Number Difficulty Gas Used Reward
Loading
Loading
Make sure to use the "Vote Down" button for any spammy posts, and the "Vote Up" for interesting conversations.